SEU2379 EPPO-HEGN
Flight info
| Callsign | SEU2379 |
|---|---|
| Flight time | 3h 55m |
| Altitude | 35000 |
| Route | XIDNA DCT REGLI DCT LITKU DCT PADGU DCT LOMOS DCT NIKTI DCT LMO UN128 RIKSO/N0456F370 UN128 BANRO DCT VANZA DCT RASDA A16 CVO L315 HGD |
| Aircraft | B738/M-SDE2E3FGHIRWXY/LB1 |
Departure
| Time | 2026-05-04 12:44 |
|---|---|
| Airport | Poznań-Ławica Airport (EPPO) |
Arrival
| Time | 2026-05-04 16:40 |
|---|---|
| Airport | Hurghada International Airport (HEGN) |
| Time | Latitude | Longitude | Altitude | Speed | Heading |
|---|---|---|---|---|---|
| 2026-05-04 12:27 | 52.41577 | 16.83060 | 301 ft | 0 kts | 191° |
| 2026-05-04 12:35 | 52.41586 | 16.83063 | 301 ft | 4 kts | 199° |
| 2026-05-04 12:36 | 52.41607 | 16.83078 | 302 ft | 2 kts | 200° |
| 2026-05-04 12:36 | 52.41627 | 16.83082 | 300 ft | 4 kts | 135° |
| 2026-05-04 12:36 | 52.41639 | 16.83045 | 299 ft | 4 kts | 104° |
| 2026-05-04 12:36 | 52.41642 | 16.83023 | 304 ft | 1 kts | 102° |
| 2026-05-04 12:37 | 52.41643 | 16.83020 | 304 ft | 0 kts | 102° |
| 2026-05-04 12:40 | 52.41641 | 16.83029 | 301 ft | 4 kts | 102° |
| 2026-05-04 12:40 | 52.41629 | 16.83131 | 302 ft | 15 kts | 102° |
| 2026-05-04 12:40 | 52.41600 | 16.83330 | 301 ft | 19 kts | 101° |
| 2026-05-04 12:40 | 52.41574 | 16.83536 | 299 ft | 18 kts | 100° |
| 2026-05-04 12:41 | 52.41566 | 16.83741 | 298 ft | 18 kts | 94° |
| 2026-05-04 12:41 | 52.41581 | 16.83929 | 298 ft | 17 kts | 41° |
| 2026-05-04 12:41 | 52.41686 | 16.84012 | 297 ft | 17 kts | 19° |
| 2026-05-04 12:41 | 52.41792 | 16.84078 | 297 ft | 16 kts | 18° |
| 2026-05-04 12:42 | 52.41839 | 16.84009 | 298 ft | 0 kts | 285° |
| 2026-05-04 12:43 | 52.41880 | 16.83798 | 301 ft | 56 kts | 288° |
| 2026-05-04 12:43 | 52.42078 | 16.82772 | 304 ft | 130 kts | 288° |
| 2026-05-04 12:43 | 52.42298 | 16.81636 | 352 ft | 171 kts | 287° |
| 2026-05-04 12:44 | 52.42392 | 16.81161 | 410 ft | 181 kts | 287° |
| 2026-05-04 12:44 | 52.42824 | 16.79130 | 1233 ft | 196 kts | 289° |
| 2026-05-04 12:44 | 52.43241 | 16.77030 | 2273 ft | 193 kts | 286° |
| 2026-05-04 12:44 | 52.43663 | 16.74787 | 2690 ft | 219 kts | 286° |
| 2026-05-04 12:45 | 52.44125 | 16.72329 | 3136 ft | 230 kts | 286° |
| 2026-05-04 12:45 | 52.44595 | 16.69794 | 3731 ft | 233 kts | 285° |
| 2026-05-04 12:45 | 52.45084 | 16.67192 | 4223 ft | 245 kts | 285° |
| 2026-05-04 12:45 | 52.45584 | 16.64503 | 4987 ft | 246 kts | 285° |
| 2026-05-04 12:46 | 52.46099 | 16.61827 | 5838 ft | 247 kts | 285° |
| 2026-05-04 12:46 | 52.46607 | 16.59115 | 6609 ft | 251 kts | 284° |
| 2026-05-04 12:46 | 52.47118 | 16.56371 | 7340 ft | 252 kts | 283° |
| 2026-05-04 12:46 | 52.47438 | 16.53560 | 8073 ft | 250 kts | 263° |
| 2026-05-04 12:47 | 52.46971 | 16.50852 | 8832 ft | 248 kts | 239° |
| 2026-05-04 12:47 | 52.45888 | 16.48667 | 9609 ft | 248 kts | 220° |
| 2026-05-04 12:47 | 52.44379 | 16.47274 | 10282 ft | 254 kts | 202° |
| 2026-05-04 12:47 | 52.42645 | 16.46551 | 10891 ft | 264 kts | 185° |
| 2026-05-04 12:48 | 52.40814 | 16.47162 | 11523 ft | 278 kts | 159° |
| 2026-05-04 12:48 | 52.39216 | 16.49121 | 11914 ft | 304 kts | 134° |
| 2026-05-04 12:48 | 52.38215 | 16.52305 | 12096 ft | 334 kts | 112° |
| 2026-05-04 12:48 | 52.37509 | 16.56115 | 12268 ft | 357 kts | 110° |
| 2026-05-04 12:49 | 52.36798 | 16.60066 | 12429 ft | 376 kts | 110° |
| 2026-05-04 12:49 | 52.36034 | 16.64239 | 12828 ft | 387 kts | 111° |
| 2026-05-04 12:49 | 52.34842 | 16.68144 | 13401 ft | 383 kts | 134° |
| 2026-05-04 12:49 | 52.32864 | 16.70929 | 14077 ft | 373 kts | 155° |
| 2026-05-04 12:50 | 52.30479 | 16.72454 | 14684 ft | 367 kts | 172° |
| 2026-05-04 12:50 | 52.27951 | 16.72811 | 15232 ft | 364 kts | 187° |
| 2026-05-04 12:50 | 52.25481 | 16.71978 | 15771 ft | 364 kts | 200° |
| 2026-05-04 12:50 | 52.23064 | 16.70689 | 16324 ft | 367 kts | 201° |
| 2026-05-04 12:51 | 52.20625 | 16.69382 | 16850 ft | 372 kts | 201° |
| 2026-05-04 12:51 | 52.18144 | 16.68089 | 17389 ft | 377 kts | 200° |
| 2026-05-04 12:51 | 52.15556 | 16.67215 | 17897 ft | 387 kts | 184° |
| 2026-05-04 12:51 | 52.12858 | 16.67746 | 18417 ft | 397 kts | 166° |
| 2026-05-04 12:52 | 52.10282 | 16.69476 | 18937 ft | 403 kts | 159° |
| 2026-05-04 12:52 | 52.07740 | 16.71425 | 19459 ft | 405 kts | 158° |
| 2026-05-04 12:52 | 52.05194 | 16.73403 | 19946 ft | 408 kts | 158° |
| 2026-05-04 12:52 | 52.02624 | 16.75389 | 20445 ft | 410 kts | 158° |
| 2026-05-04 12:53 | 52.00036 | 16.77369 | 20921 ft | 412 kts | 158° |
| 2026-05-04 12:53 | 51.97427 | 16.79345 | 21381 ft | 415 kts | 159° |
| 2026-05-04 12:53 | 51.94796 | 16.81325 | 21823 ft | 418 kts | 159° |
| 2026-05-04 12:53 | 51.92148 | 16.83311 | 22285 ft | 420 kts | 158° |
| 2026-05-04 12:54 | 51.89488 | 16.85301 | 22767 ft | 422 kts | 158° |
| 2026-05-04 12:54 | 51.86814 | 16.87298 | 23222 ft | 425 kts | 158° |
| 2026-05-04 12:54 | 51.84122 | 16.89305 | 23622 ft | 427 kts | 158° |
| 2026-05-04 12:54 | 51.81418 | 16.91318 | 23977 ft | 430 kts | 158° |
| 2026-05-04 12:55 | 51.78693 | 16.93345 | 24324 ft | 432 kts | 158° |
| 2026-05-04 12:55 | 51.75951 | 16.95384 | 24643 ft | 436 kts | 158° |
| 2026-05-04 12:55 | 51.73187 | 16.97436 | 24956 ft | 439 kts | 158° |
| 2026-05-04 12:55 | 51.70407 | 16.99495 | 25296 ft | 441 kts | 158° |
| 2026-05-04 12:56 | 51.67589 | 17.01457 | 25634 ft | 442 kts | 161° |
| 2026-05-04 12:56 | 51.64721 | 17.03268 | 25957 ft | 443 kts | 162° |
| 2026-05-04 12:56 | 51.61826 | 17.05020 | 26270 ft | 446 kts | 162° |
| 2026-05-04 12:56 | 51.58912 | 17.06765 | 26578 ft | 448 kts | 162° |
| 2026-05-04 12:57 | 51.55983 | 17.08524 | 26881 ft | 450 kts | 162° |
| 2026-05-04 12:57 | 51.53047 | 17.10300 | 27158 ft | 453 kts | 162° |
| 2026-05-04 12:57 | 51.50094 | 17.12100 | 27455 ft | 455 kts | 162° |
| 2026-05-04 12:57 | 51.47129 | 17.13914 | 27715 ft | 458 kts | 162° |
| 2026-05-04 12:58 | 51.44187 | 17.15718 | 27974 ft | 460 kts | 162° |
| 2026-05-04 12:58 | 51.41196 | 17.17552 | 28260 ft | 462 kts | 162° |
| 2026-05-04 12:58 | 51.38150 | 17.19419 | 28557 ft | 463 kts | 162° |
| 2026-05-04 12:58 | 51.35173 | 17.21241 | 28834 ft | 465 kts | 162° |
| 2026-05-04 12:59 | 51.32146 | 17.23090 | 29147 ft | 466 kts | 162° |
| 2026-05-04 12:59 | 51.29122 | 17.24936 | 29552 ft | 464 kts | 162° |
| 2026-05-04 12:59 | 51.26108 | 17.26773 | 29992 ft | 463 kts | 162° |
| 2026-05-04 12:59 | 51.23104 | 17.28600 | 30328 ft | 462 kts | 162° |
| 2026-05-04 13:00 | 51.20104 | 17.30421 | 30567 ft | 463 kts | 162° |
| 2026-05-04 13:00 | 51.17089 | 17.32248 | 30805 ft | 464 kts | 162° |
| 2026-05-04 13:00 | 51.14080 | 17.34070 | 31170 ft | 461 kts | 162° |
| 2026-05-04 13:00 | 51.11095 | 17.35876 | 31616 ft | 457 kts | 162° |
| 2026-05-04 13:01 | 51.08127 | 17.37669 | 31940 ft | 456 kts | 162° |
| 2026-05-04 13:01 | 51.05155 | 17.39460 | 32149 ft | 457 kts | 162° |
| 2026-05-04 13:01 | 51.02176 | 17.41253 | 32398 ft | 458 kts | 162° |
| 2026-05-04 13:01 | 50.99203 | 17.43040 | 32695 ft | 457 kts | 162° |
| 2026-05-04 13:02 | 50.96235 | 17.44822 | 33005 ft | 455 kts | 162° |
| 2026-05-04 13:02 | 50.93270 | 17.46600 | 33261 ft | 455 kts | 162° |
| 2026-05-04 13:02 | 50.90306 | 17.48375 | 33518 ft | 455 kts | 162° |
| 2026-05-04 13:02 | 50.87345 | 17.50146 | 33789 ft | 455 kts | 162° |
| 2026-05-04 13:03 | 50.84388 | 17.51912 | 34054 ft | 454 kts | 162° |
| 2026-05-04 13:03 | 50.81432 | 17.53674 | 34256 ft | 454 kts | 162° |
| 2026-05-04 13:03 | 50.78475 | 17.55435 | 34450 ft | 454 kts | 162° |
| 2026-05-04 13:03 | 50.75519 | 17.57193 | 34670 ft | 454 kts | 162° |
| 2026-05-04 13:04 | 50.72569 | 17.58945 | 34910 ft | 452 kts | 162° |
| 2026-05-04 13:04 | 50.66638 | 17.62459 | 34969 ft | 458 kts | 162° |
| 2026-05-04 13:05 | 50.60625 | 17.66012 | 34972 ft | 464 kts | 162° |
| 2026-05-04 13:05 | 50.54547 | 17.69596 | 34966 ft | 468 kts | 162° |
| 2026-05-04 13:06 | 50.48440 | 17.73187 | 34971 ft | 469 kts | 162° |
| 2026-05-04 13:06 | 50.42324 | 17.76774 | 34959 ft | 470 kts | 161° |
| 2026-05-04 13:07 | 50.36239 | 17.80332 | 34981 ft | 470 kts | 162° |
| 2026-05-04 13:07 | 50.30117 | 17.83901 | 34974 ft | 469 kts | 161° |
| 2026-05-04 13:08 | 50.24004 | 17.87456 | 34980 ft | 468 kts | 161° |
| 2026-05-04 13:08 | 50.17899 | 17.90998 | 34975 ft | 467 kts | 162° |
| 2026-05-04 13:09 | 50.11809 | 17.94524 | 34981 ft | 467 kts | 162° |
| 2026-05-04 13:09 | 50.05711 | 17.98038 | 34984 ft | 467 kts | 162° |
| 2026-05-04 13:10 | 49.99822 | 18.02285 | 34998 ft | 468 kts | 151° |
| 2026-05-04 13:10 | 49.94247 | 18.07544 | 34996 ft | 469 kts | 151° |
| 2026-05-04 13:11 | 49.88674 | 18.12819 | 34999 ft | 471 kts | 151° |
| 2026-05-04 13:11 | 49.83056 | 18.18048 | 35012 ft | 471 kts | 150° |
| 2026-05-04 13:12 | 49.77428 | 18.23229 | 35022 ft | 471 kts | 151° |
| 2026-05-04 13:12 | 49.71786 | 18.28398 | 35017 ft | 471 kts | 152° |
| 2026-05-04 13:13 | 49.66146 | 18.33554 | 35014 ft | 472 kts | 152° |
| 2026-05-04 13:13 | 49.60477 | 18.38723 | 35011 ft | 474 kts | 152° |
| 2026-05-04 13:14 | 49.54792 | 18.43894 | 35007 ft | 475 kts | 151° |
| 2026-05-04 13:14 | 49.49106 | 18.49053 | 35010 ft | 475 kts | 152° |
| 2026-05-04 13:15 | 49.43405 | 18.54212 | 35034 ft | 476 kts | 151° |
| 2026-05-04 13:15 | 49.37702 | 18.59358 | 35038 ft | 475 kts | 151° |
| 2026-05-04 13:16 | 49.32953 | 18.63631 | 35039 ft | 478 kts | 151° |
| 2026-05-04 13:16 | 49.27207 | 18.68789 | 35063 ft | 479 kts | 150° |
| 2026-05-04 13:17 | 49.21454 | 18.73941 | 35043 ft | 479 kts | 151° |
| 2026-05-04 13:17 | 49.14751 | 18.79924 | 35032 ft | 481 kts | 152° |
| 2026-05-04 13:18 | 49.09913 | 18.84231 | 35036 ft | 480 kts | 151° |
| 2026-05-04 13:18 | 49.04140 | 18.89359 | 35044 ft | 480 kts | 150° |
| 2026-05-04 13:19 | 48.98375 | 18.94465 | 35049 ft | 479 kts | 150° |
| 2026-05-04 13:19 | 48.92655 | 18.99517 | 35043 ft | 478 kts | 150° |
| 2026-05-04 13:20 | 48.86898 | 19.04588 | 35041 ft | 479 kts | 151° |
| 2026-05-04 13:20 | 48.81130 | 19.09655 | 35040 ft | 480 kts | 151° |
| 2026-05-04 13:21 | 48.75351 | 19.14718 | 35058 ft | 479 kts | 150° |
| 2026-05-04 13:21 | 48.69578 | 19.19763 | 35059 ft | 479 kts | 150° |
| 2026-05-04 13:22 | 48.63799 | 19.24800 | 35059 ft | 480 kts | 150° |
| 2026-05-04 13:22 | 48.58008 | 19.29833 | 35067 ft | 480 kts | 150° |
| 2026-05-04 13:23 | 48.52212 | 19.34858 | 35059 ft | 481 kts | 150° |
| 2026-05-04 13:23 | 48.46404 | 19.39879 | 35069 ft | 481 kts | 150° |
| 2026-05-04 13:24 | 48.40590 | 19.44893 | 35073 ft | 481 kts | 150° |
| 2026-05-04 13:24 | 48.34776 | 19.49894 | 35063 ft | 481 kts | 150° |
| 2026-05-04 13:25 | 48.26061 | 19.57366 | 35068 ft | 481 kts | 150° |
| 2026-05-04 13:25 | 48.20316 | 19.62358 | 35073 ft | 481 kts | 148° |
| 2026-05-04 13:26 | 48.14646 | 19.67685 | 35073 ft | 481 kts | 147° |
| 2026-05-04 13:26 | 48.09004 | 19.73063 | 35070 ft | 481 kts | 147° |
| 2026-05-04 13:27 | 48.03338 | 19.78404 | 35073 ft | 481 kts | 147° |
| 2026-05-04 13:27 | 47.97665 | 19.83697 | 35072 ft | 481 kts | 147° |
| 2026-05-04 13:28 | 47.91977 | 19.88978 | 35087 ft | 482 kts | 147° |
| 2026-05-04 13:28 | 47.86282 | 19.94252 | 35075 ft | 482 kts | 147° |
| 2026-05-04 13:29 | 47.80584 | 19.99518 | 35080 ft | 482 kts | 147° |
| 2026-05-04 13:29 | 47.74884 | 20.04772 | 35076 ft | 482 kts | 147° |
| 2026-05-04 13:30 | 47.69177 | 20.10019 | 35080 ft | 482 kts | 147° |
| 2026-05-04 13:30 | 47.63464 | 20.15258 | 35085 ft | 483 kts | 147° |
| 2026-05-04 13:31 | 47.57743 | 20.20490 | 35084 ft | 484 kts | 147° |
| 2026-05-04 13:31 | 47.52010 | 20.25720 | 35083 ft | 484 kts | 147° |
| 2026-05-04 13:32 | 47.46271 | 20.30941 | 35078 ft | 484 kts | 147° |
| 2026-05-04 13:32 | 47.40526 | 20.36155 | 35091 ft | 485 kts | 147° |
| 2026-05-04 13:33 | 47.34781 | 20.41355 | 35095 ft | 485 kts | 147° |
| 2026-05-04 13:33 | 47.29022 | 20.46554 | 35096 ft | 485 kts | 147° |
| 2026-05-04 13:34 | 47.23259 | 20.51744 | 35096 ft | 485 kts | 147° |
| 2026-05-04 13:34 | 47.17494 | 20.56922 | 35090 ft | 486 kts | 147° |
| 2026-05-04 13:35 | 47.08886 | 20.64628 | 35091 ft | 486 kts | 147° |
| 2026-05-04 13:36 | 47.03114 | 20.69779 | 35089 ft | 486 kts | 147° |
| 2026-05-04 13:36 | 46.97337 | 20.74921 | 35095 ft | 486 kts | 147° |
| 2026-05-04 13:37 | 46.91558 | 20.80053 | 35094 ft | 486 kts | 147° |
| 2026-05-04 13:37 | 46.85776 | 20.85173 | 35106 ft | 486 kts | 147° |
| 2026-05-04 13:38 | 46.79991 | 20.90283 | 35094 ft | 486 kts | 147° |
| 2026-05-04 13:38 | 46.74203 | 20.95383 | 35094 ft | 486 kts | 147° |
| 2026-05-04 13:39 | 46.68419 | 21.00466 | 35095 ft | 486 kts | 147° |
| 2026-05-04 13:39 | 46.62628 | 21.05543 | 35098 ft | 486 kts | 147° |
| 2026-05-04 13:40 | 46.56833 | 21.10610 | 35110 ft | 486 kts | 147° |
| 2026-05-04 13:40 | 46.51044 | 21.15660 | 35099 ft | 486 kts | 147° |
| 2026-05-04 13:41 | 46.45248 | 21.20702 | 35102 ft | 485 kts | 147° |
| 2026-05-04 13:41 | 46.39491 | 21.25699 | 35096 ft | 485 kts | 147° |
| 2026-05-04 13:42 | 46.30797 | 21.33220 | 35110 ft | 485 kts | 147° |
| 2026-05-04 13:42 | 46.25004 | 21.38217 | 35101 ft | 485 kts | 147° |
| 2026-05-04 13:43 | 46.19209 | 21.43202 | 35103 ft | 485 kts | 148° |
| 2026-05-04 13:43 | 46.13413 | 21.48176 | 35099 ft | 485 kts | 147° |
| 2026-05-04 13:44 | 46.07617 | 21.53138 | 35129 ft | 485 kts | 147° |
| 2026-05-04 13:44 | 46.01820 | 21.58089 | 35107 ft | 484 kts | 147° |
| 2026-05-04 13:45 | 45.96025 | 21.63025 | 35098 ft | 484 kts | 148° |
| 2026-05-04 13:45 | 45.90241 | 21.67940 | 35089 ft | 483 kts | 148° |
| 2026-05-04 13:46 | 45.84455 | 21.72845 | 35104 ft | 483 kts | 148° |
| 2026-05-04 13:46 | 45.78670 | 21.77737 | 35106 ft | 483 kts | 148° |
| 2026-05-04 13:47 | 45.72880 | 21.82621 | 35098 ft | 483 kts | 148° |
| 2026-05-04 13:47 | 45.67093 | 21.87491 | 35097 ft | 482 kts | 148° |
| 2026-05-04 13:48 | 45.61615 | 21.92091 | 35093 ft | 482 kts | 148° |
| 2026-05-04 13:48 | 45.55826 | 21.96939 | 35119 ft | 483 kts | 148° |
| 2026-05-04 13:49 | 45.50025 | 22.01786 | 35101 ft | 483 kts | 148° |
| 2026-05-04 13:49 | 45.44220 | 22.06625 | 35099 ft | 483 kts | 148° |
| 2026-05-04 13:50 | 45.38413 | 22.11454 | 35094 ft | 484 kts | 148° |
| 2026-05-04 13:50 | 45.32599 | 22.16277 | 35107 ft | 485 kts | 148° |
| 2026-05-04 13:51 | 45.26768 | 22.21102 | 35103 ft | 485 kts | 148° |
| 2026-05-04 13:51 | 45.20945 | 22.25909 | 35098 ft | 484 kts | 148° |
| 2026-05-04 13:52 | 45.12213 | 22.33096 | 35089 ft | 484 kts | 147° |
| 2026-05-04 13:53 | 45.06386 | 22.37878 | 35084 ft | 484 kts | 147° |
| 2026-05-04 13:53 | 45.00572 | 22.42639 | 35075 ft | 483 kts | 148° |
| 2026-05-04 13:54 | 44.91891 | 22.49726 | 35067 ft | 482 kts | 148° |
| 2026-05-04 13:55 | 44.83182 | 22.56813 | 35060 ft | 482 kts | 147° |
| 2026-05-04 13:55 | 44.74412 | 22.63668 | 35054 ft | 480 kts | 152° |
| 2026-05-04 13:56 | 44.68391 | 22.67751 | 35044 ft | 480 kts | 153° |
| 2026-05-04 13:57 | 44.59351 | 22.73811 | 35044 ft | 480 kts | 152° |
| 2026-05-04 13:58 | 44.47333 | 22.81987 | 35051 ft | 480 kts | 152° |
| 2026-05-04 13:58 | 44.38318 | 22.88110 | 35059 ft | 481 kts | 152° |
| 2026-05-04 13:59 | 44.32297 | 22.92184 | 35051 ft | 481 kts | 152° |
| 2026-05-04 14:00 | 44.23295 | 22.98257 | 35053 ft | 473 kts | 153° |
| 2026-05-04 14:00 | 44.14466 | 23.04193 | 35067 ft | 469 kts | 152° |
| 2026-05-04 14:01 | 44.08575 | 23.08146 | 35070 ft | 471 kts | 153° |
| 2026-05-04 14:02 | 43.99706 | 23.14077 | 35083 ft | 472 kts | 153° |
| 2026-05-04 14:02 | 43.93800 | 23.18016 | 35062 ft | 470 kts | 153° |
| 2026-05-04 14:03 | 43.87920 | 23.21930 | 35062 ft | 468 kts | 153° |
| 2026-05-04 14:03 | 43.82005 | 23.25661 | 35065 ft | 467 kts | 160° |
| 2026-05-04 14:04 | 43.72635 | 23.29347 | 35080 ft | 467 kts | 163° |
| 2026-05-04 14:04 | 43.67425 | 23.31311 | 35071 ft | 466 kts | 163° |
| 2026-05-04 14:05 | 43.58070 | 23.34941 | 35081 ft | 465 kts | 163° |
| 2026-05-04 14:06 | 43.50832 | 23.37783 | 35103 ft | 465 kts | 163° |
| 2026-05-04 14:06 | 43.45619 | 23.39828 | 35094 ft | 465 kts | 163° |
| 2026-05-04 14:07 | 43.39389 | 23.42261 | 35109 ft | 465 kts | 163° |
| 2026-05-04 14:07 | 43.33173 | 23.44685 | 35092 ft | 464 kts | 163° |
| 2026-05-04 14:08 | 43.27016 | 23.47082 | 35105 ft | 462 kts | 163° |
| 2026-05-04 14:08 | 43.20829 | 23.49484 | 35110 ft | 462 kts | 163° |
| 2026-05-04 14:09 | 43.11563 | 23.53073 | 35108 ft | 461 kts | 163° |
| 2026-05-04 14:10 | 43.02312 | 23.56644 | 35106 ft | 460 kts | 163° |
| 2026-05-04 14:10 | 42.96151 | 23.59015 | 35117 ft | 459 kts | 163° |
| 2026-05-04 14:11 | 42.89998 | 23.61379 | 35115 ft | 460 kts | 163° |
| 2026-05-04 14:11 | 42.80760 | 23.64920 | 35114 ft | 460 kts | 163° |
| 2026-05-04 14:12 | 42.74601 | 23.67273 | 35117 ft | 460 kts | 163° |
| 2026-05-04 14:13 | 42.65369 | 23.70793 | 35115 ft | 460 kts | 163° |
| 2026-05-04 14:13 | 42.59205 | 23.73136 | 35112 ft | 460 kts | 163° |
| 2026-05-04 14:14 | 42.53048 | 23.75473 | 35108 ft | 460 kts | 163° |
| 2026-05-04 14:14 | 42.43798 | 23.78977 | 35108 ft | 460 kts | 163° |
| 2026-05-04 14:15 | 42.31453 | 23.83630 | 35101 ft | 461 kts | 163° |
| 2026-05-04 14:16 | 42.22183 | 23.87114 | 35100 ft | 461 kts | 163° |
| 2026-05-04 14:17 | 42.12914 | 23.90584 | 35096 ft | 461 kts | 163° |
| 2026-05-04 14:18 | 42.03679 | 23.94033 | 35096 ft | 461 kts | 163° |
| 2026-05-04 14:19 | 41.91318 | 23.98638 | 35085 ft | 461 kts | 163° |
| 2026-05-04 14:19 | 41.85139 | 24.00930 | 35078 ft | 460 kts | 163° |
| 2026-05-04 14:20 | 41.78964 | 24.03218 | 35072 ft | 461 kts | 163° |
| 2026-05-04 14:20 | 41.72778 | 24.05507 | 35069 ft | 461 kts | 163° |
| 2026-05-04 14:21 | 41.63486 | 24.08930 | 35068 ft | 462 kts | 163° |
| 2026-05-04 14:21 | 41.57288 | 24.11212 | 35066 ft | 462 kts | 162° |
| 2026-05-04 14:22 | 41.51325 | 24.14290 | 35066 ft | 459 kts | 151° |
| 2026-05-04 14:22 | 41.45685 | 24.18309 | 35067 ft | 459 kts | 150° |
| 2026-05-04 14:23 | 41.37240 | 24.24369 | 35047 ft | 460 kts | 150° |
| 2026-05-04 14:24 | 41.31583 | 24.28356 | 35048 ft | 460 kts | 150° |
| 2026-05-04 14:24 | 41.25913 | 24.32323 | 35040 ft | 461 kts | 151° |
| 2026-05-04 14:25 | 41.20232 | 24.36283 | 35044 ft | 461 kts | 151° |
| 2026-05-04 14:25 | 41.11732 | 24.42294 | 35041 ft | 461 kts | 144° |
| 2026-05-04 14:26 | 41.06538 | 24.47272 | 35048 ft | 461 kts | 141° |
| 2026-05-04 14:26 | 41.01424 | 24.52410 | 35050 ft | 462 kts | 141° |
| 2026-05-04 14:27 | 40.96279 | 24.57512 | 35048 ft | 462 kts | 142° |
| 2026-05-04 14:27 | 40.91104 | 24.62569 | 35057 ft | 462 kts | 141° |
| 2026-05-04 14:28 | 40.85915 | 24.67603 | 35051 ft | 463 kts | 142° |
| 2026-05-04 14:28 | 40.80720 | 24.72630 | 35052 ft | 463 kts | 141° |
| 2026-05-04 14:29 | 40.70336 | 24.82654 | 35057 ft | 462 kts | 141° |
| 2026-05-04 14:30 | 40.65175 | 24.87624 | 35061 ft | 462 kts | 142° |
| 2026-05-04 14:31 | 40.57377 | 24.95113 | 35062 ft | 463 kts | 142° |
| 2026-05-04 14:32 | 40.46953 | 25.05091 | 35060 ft | 464 kts | 142° |
| 2026-05-04 14:32 | 40.41725 | 25.10080 | 35062 ft | 465 kts | 141° |
| 2026-05-04 14:33 | 40.36488 | 25.15068 | 35066 ft | 465 kts | 142° |
| 2026-05-04 14:33 | 40.31249 | 25.20048 | 35069 ft | 466 kts | 142° |
| 2026-05-04 14:34 | 40.25999 | 25.25028 | 35049 ft | 466 kts | 142° |
| 2026-05-04 14:34 | 40.20745 | 25.30002 | 35064 ft | 466 kts | 142° |
| 2026-05-04 14:35 | 40.15487 | 25.34971 | 35069 ft | 467 kts | 142° |
| 2026-05-04 14:35 | 40.10218 | 25.39941 | 35068 ft | 467 kts | 142° |
| 2026-05-04 14:36 | 40.04973 | 25.44878 | 35065 ft | 468 kts | 142° |
| 2026-05-04 14:36 | 39.99685 | 25.49846 | 35070 ft | 469 kts | 142° |
| 2026-05-04 14:37 | 39.94362 | 25.54837 | 35065 ft | 469 kts | 142° |
| 2026-05-04 14:37 | 39.89100 | 25.59760 | 35068 ft | 469 kts | 142° |
| 2026-05-04 14:38 | 39.83796 | 25.64715 | 35072 ft | 470 kts | 142° |
| 2026-05-04 14:38 | 39.78473 | 25.69677 | 35062 ft | 471 kts | 142° |
| 2026-05-04 14:39 | 39.73146 | 25.74633 | 35061 ft | 471 kts | 142° |
| 2026-05-04 14:39 | 39.67817 | 25.79582 | 35061 ft | 471 kts | 142° |
| 2026-05-04 14:40 | 39.59824 | 25.86985 | 35061 ft | 471 kts | 142° |
| 2026-05-04 14:40 | 39.54481 | 25.91923 | 35075 ft | 472 kts | 143° |
| 2026-05-04 14:41 | 39.49121 | 25.96867 | 35069 ft | 474 kts | 142° |
| 2026-05-04 14:42 | 39.38370 | 26.06753 | 35060 ft | 474 kts | 142° |
| 2026-05-04 14:42 | 39.32991 | 26.11686 | 35063 ft | 474 kts | 143° |
| 2026-05-04 14:43 | 39.27607 | 26.16614 | 35068 ft | 475 kts | 143° |
| 2026-05-04 14:43 | 39.22222 | 26.21533 | 35065 ft | 475 kts | 143° |
| 2026-05-04 14:44 | 39.16825 | 26.26453 | 35076 ft | 475 kts | 142° |
| 2026-05-04 14:44 | 39.11411 | 26.31381 | 35069 ft | 477 kts | 142° |
| 2026-05-04 14:45 | 39.05980 | 26.36313 | 35072 ft | 478 kts | 143° |
| 2026-05-04 14:45 | 39.00542 | 26.41242 | 35070 ft | 478 kts | 143° |
| 2026-05-04 14:46 | 38.95101 | 26.46164 | 35076 ft | 478 kts | 143° |
| 2026-05-04 14:46 | 38.89654 | 26.51083 | 35061 ft | 479 kts | 143° |
| 2026-05-04 14:47 | 38.84205 | 26.55994 | 35065 ft | 478 kts | 143° |
| 2026-05-04 14:47 | 38.78752 | 26.60898 | 35066 ft | 479 kts | 143° |
| 2026-05-04 14:48 | 38.73288 | 26.65804 | 35065 ft | 480 kts | 143° |
| 2026-05-04 14:48 | 38.67812 | 26.70712 | 35049 ft | 481 kts | 143° |
| 2026-05-04 14:49 | 38.62330 | 26.75615 | 35054 ft | 481 kts | 143° |
| 2026-05-04 14:49 | 38.56850 | 26.80508 | 35048 ft | 481 kts | 143° |
| 2026-05-04 14:50 | 38.51357 | 26.85403 | 35052 ft | 482 kts | 143° |
| 2026-05-04 14:50 | 38.45847 | 26.90303 | 35050 ft | 484 kts | 144° |
| 2026-05-04 14:51 | 38.40355 | 26.95178 | 35055 ft | 485 kts | 144° |
| 2026-05-04 14:51 | 38.34813 | 27.00088 | 35052 ft | 486 kts | 144° |
| 2026-05-04 14:52 | 38.29262 | 27.04997 | 35062 ft | 486 kts | 144° |
| 2026-05-04 14:52 | 38.23687 | 27.09917 | 35043 ft | 489 kts | 144° |
| 2026-05-04 14:53 | 38.19009 | 27.14038 | 35050 ft | 488 kts | 144° |
| 2026-05-04 14:53 | 38.12510 | 27.19753 | 35049 ft | 489 kts | 144° |
| 2026-05-04 14:54 | 38.07855 | 27.23840 | 35043 ft | 489 kts | 144° |
| 2026-05-04 14:54 | 38.02214 | 27.28783 | 35032 ft | 490 kts | 144° |
| 2026-05-04 14:55 | 37.96603 | 27.33690 | 35033 ft | 490 kts | 144° |
| 2026-05-04 14:55 | 37.91032 | 27.38552 | 35030 ft | 490 kts | 144° |
| 2026-05-04 14:56 | 37.85407 | 27.43453 | 35039 ft | 491 kts | 144° |
| 2026-05-04 14:56 | 37.79772 | 27.48354 | 35038 ft | 492 kts | 145° |
| 2026-05-04 14:57 | 37.74129 | 27.53251 | 35025 ft | 492 kts | 144° |
| 2026-05-04 14:57 | 37.68479 | 27.58146 | 35026 ft | 493 kts | 144° |
| 2026-05-04 14:58 | 37.62813 | 27.63046 | 35027 ft | 493 kts | 145° |
| 2026-05-04 14:58 | 37.57152 | 27.67932 | 35016 ft | 494 kts | 145° |
| 2026-05-04 14:59 | 37.51480 | 27.72818 | 35016 ft | 494 kts | 145° |
| 2026-05-04 15:00 | 37.42968 | 27.80134 | 35014 ft | 494 kts | 145° |
| 2026-05-04 15:00 | 37.37293 | 27.85000 | 35008 ft | 493 kts | 145° |
| 2026-05-04 15:01 | 37.28791 | 27.92273 | 35012 ft | 492 kts | 145° |
| 2026-05-04 15:01 | 37.23129 | 27.97105 | 35014 ft | 491 kts | 145° |
| 2026-05-04 15:02 | 37.17479 | 28.01918 | 34999 ft | 491 kts | 145° |
| 2026-05-04 15:02 | 37.11822 | 28.06729 | 35005 ft | 491 kts | 145° |
| 2026-05-04 15:03 | 37.06131 | 28.11560 | 34976 ft | 497 kts | 145° |
| 2026-05-04 15:03 | 37.00376 | 28.16435 | 34970 ft | 502 kts | 145° |
| 2026-05-04 15:04 | 36.94602 | 28.21317 | 34959 ft | 501 kts | 145° |
| 2026-05-04 15:04 | 36.88832 | 28.26189 | 34957 ft | 499 kts | 146° |
| 2026-05-04 15:05 | 36.83087 | 28.31028 | 34956 ft | 497 kts | 146° |
| 2026-05-04 15:05 | 36.77358 | 28.35845 | 34951 ft | 496 kts | 146° |
| 2026-05-04 15:06 | 36.71648 | 28.40638 | 34967 ft | 495 kts | 146° |
| 2026-05-04 15:07 | 36.63068 | 28.47824 | 34963 ft | 495 kts | 147° |
| 2026-05-04 15:07 | 36.57387 | 28.52572 | 34965 ft | 495 kts | 147° |
| 2026-05-04 15:08 | 36.51666 | 28.57344 | 34959 ft | 495 kts | 147° |
| 2026-05-04 15:08 | 36.45942 | 28.62109 | 34952 ft | 495 kts | 147° |
| 2026-05-04 15:09 | 36.40216 | 28.66868 | 34951 ft | 495 kts | 147° |
| 2026-05-04 15:09 | 36.34484 | 28.71623 | 34933 ft | 497 kts | 148° |
| 2026-05-04 15:10 | 36.25827 | 28.78787 | 34922 ft | 501 kts | 148° |
| 2026-05-04 15:11 | 36.17119 | 28.85976 | 34923 ft | 502 kts | 148° |
| 2026-05-04 15:11 | 36.11301 | 28.90768 | 34924 ft | 502 kts | 148° |
| 2026-05-04 15:12 | 36.05490 | 28.95545 | 34910 ft | 502 kts | 148° |
| 2026-05-04 15:12 | 35.99656 | 29.00332 | 34915 ft | 504 kts | 149° |
| 2026-05-04 15:13 | 35.93810 | 29.05121 | 34900 ft | 505 kts | 149° |
| 2026-05-04 15:13 | 35.87949 | 29.09913 | 34908 ft | 506 kts | 149° |
| 2026-05-04 15:14 | 35.82078 | 29.14705 | 34891 ft | 506 kts | 148° |
| 2026-05-04 15:14 | 35.76205 | 29.19490 | 34893 ft | 506 kts | 149° |
| 2026-05-04 15:15 | 35.70328 | 29.24269 | 34903 ft | 506 kts | 149° |
| 2026-05-04 15:15 | 35.64461 | 29.29033 | 34898 ft | 506 kts | 149° |
| 2026-05-04 15:16 | 35.55637 | 29.36180 | 34912 ft | 506 kts | 149° |
| 2026-05-04 15:17 | 35.46801 | 29.43318 | 34903 ft | 507 kts | 149° |
| 2026-05-04 15:17 | 35.37950 | 29.50449 | 34908 ft | 507 kts | 149° |
| 2026-05-04 15:18 | 35.32045 | 29.55196 | 34907 ft | 507 kts | 150° |
| 2026-05-04 15:19 | 35.23207 | 29.62286 | 34903 ft | 506 kts | 150° |
| 2026-05-04 15:19 | 35.14361 | 29.69362 | 34917 ft | 506 kts | 150° |
| 2026-05-04 15:20 | 35.08489 | 29.74051 | 34895 ft | 497 kts | 150° |
| 2026-05-04 15:20 | 35.02755 | 29.78624 | 34913 ft | 489 kts | 150° |
| 2026-05-04 15:21 | 34.97067 | 29.83147 | 34889 ft | 488 kts | 152° |
| 2026-05-04 15:22 | 34.88544 | 29.89910 | 34926 ft | 487 kts | 152° |
| 2026-05-04 15:22 | 34.79997 | 29.96680 | 34933 ft | 490 kts | 152° |
| 2026-05-04 15:23 | 34.74258 | 30.01056 | 34925 ft | 488 kts | 158° |
| 2026-05-04 15:23 | 34.68134 | 30.04692 | 34911 ft | 487 kts | 162° |
| 2026-05-04 15:24 | 34.55840 | 30.11652 | 34925 ft | 491 kts | 161° |
| 2026-05-04 15:25 | 34.49657 | 30.15235 | 34940 ft | 493 kts | 161° |
| 2026-05-04 15:26 | 34.40369 | 30.20640 | 34929 ft | 494 kts | 161° |
| 2026-05-04 15:26 | 34.31060 | 30.26038 | 34937 ft | 494 kts | 161° |
| 2026-05-04 15:27 | 34.21767 | 30.31410 | 34953 ft | 493 kts | 161° |
| 2026-05-04 15:28 | 34.12502 | 30.36753 | 34949 ft | 491 kts | 162° |
| 2026-05-04 15:29 | 34.03268 | 30.42062 | 34956 ft | 490 kts | 162° |
| 2026-05-04 15:30 | 33.81759 | 30.54383 | 34960 ft | 489 kts | 163° |
| 2026-05-04 15:31 | 33.72530 | 30.59646 | 34975 ft | 490 kts | 163° |
| 2026-05-04 15:32 | 33.57097 | 30.68424 | 34975 ft | 492 kts | 163° |
| 2026-05-04 15:34 | 33.41609 | 30.77197 | 34984 ft | 493 kts | 163° |
| 2026-05-04 15:34 | 33.32300 | 30.82455 | 34982 ft | 492 kts | 163° |
| 2026-05-04 15:35 | 33.23057 | 30.87664 | 34992 ft | 491 kts | 163° |
| 2026-05-04 15:36 | 33.13795 | 30.92870 | 34996 ft | 490 kts | 163° |
| 2026-05-04 15:36 | 33.07483 | 30.95372 | 34976 ft | 467 kts | 180° |
| 2026-05-04 15:37 | 33.01070 | 30.96103 | 34992 ft | 458 kts | 185° |
| 2026-05-04 15:37 | 32.94763 | 30.96733 | 35006 ft | 457 kts | 185° |
| 2026-05-04 15:38 | 32.88424 | 30.97410 | 35010 ft | 457 kts | 185° |
| 2026-05-04 15:38 | 32.82100 | 30.98111 | 34981 ft | 455 kts | 185° |
| 2026-05-04 15:39 | 32.75797 | 30.98815 | 35009 ft | 455 kts | 185° |
| 2026-05-04 15:40 | 32.67413 | 30.99746 | 35027 ft | 455 kts | 185° |
| 2026-05-04 15:40 | 32.61101 | 31.00445 | 34982 ft | 456 kts | 185° |
| 2026-05-04 15:41 | 32.54787 | 31.01145 | 35016 ft | 456 kts | 185° |
| 2026-05-04 15:41 | 32.48462 | 31.01844 | 35028 ft | 457 kts | 185° |
| 2026-05-04 15:42 | 32.42125 | 31.02543 | 35044 ft | 458 kts | 185° |
| 2026-05-04 15:42 | 32.35775 | 31.03244 | 34997 ft | 458 kts | 184° |
| 2026-05-04 15:43 | 32.29440 | 31.03943 | 35040 ft | 458 kts | 184° |
| 2026-05-04 15:43 | 32.23103 | 31.04640 | 35045 ft | 457 kts | 184° |
| 2026-05-04 15:44 | 32.16772 | 31.05335 | 35048 ft | 456 kts | 184° |
| 2026-05-04 15:44 | 32.10453 | 31.06028 | 35034 ft | 455 kts | 184° |
| 2026-05-04 15:45 | 32.04151 | 31.06718 | 35043 ft | 454 kts | 184° |
| 2026-05-04 15:45 | 31.97859 | 31.07406 | 35053 ft | 454 kts | 184° |
| 2026-05-04 15:46 | 31.91576 | 31.08093 | 35058 ft | 453 kts | 184° |
| 2026-05-04 15:46 | 31.85304 | 31.08777 | 35056 ft | 453 kts | 184° |
| 2026-05-04 15:47 | 31.79029 | 31.09461 | 35065 ft | 453 kts | 184° |
| 2026-05-04 15:47 | 31.72754 | 31.10144 | 35064 ft | 453 kts | 184° |
| 2026-05-04 15:48 | 31.66480 | 31.10826 | 35060 ft | 453 kts | 184° |
| 2026-05-04 15:48 | 31.57116 | 31.11843 | 35057 ft | 452 kts | 184° |
| 2026-05-04 15:49 | 31.50843 | 31.12596 | 35068 ft | 456 kts | 181° |
| 2026-05-04 15:49 | 31.44555 | 31.13761 | 35073 ft | 458 kts | 179° |
| 2026-05-04 15:50 | 31.38260 | 31.14986 | 35054 ft | 458 kts | 180° |
| 2026-05-04 15:50 | 31.31973 | 31.16157 | 35068 ft | 458 kts | 180° |
| 2026-05-04 15:51 | 31.25675 | 31.17311 | 35073 ft | 458 kts | 180° |
| 2026-05-04 15:51 | 31.19375 | 31.18474 | 35076 ft | 458 kts | 180° |
| 2026-05-04 15:52 | 31.13073 | 31.19651 | 35038 ft | 458 kts | 181° |
| 2026-05-04 15:52 | 31.06786 | 31.20826 | 35055 ft | 457 kts | 181° |
| 2026-05-04 15:53 | 31.00503 | 31.21995 | 35061 ft | 457 kts | 181° |
| 2026-05-04 15:53 | 30.94225 | 31.23160 | 35076 ft | 457 kts | 181° |
| 2026-05-04 15:54 | 30.87960 | 31.24322 | 35043 ft | 456 kts | 181° |
| 2026-05-04 15:54 | 30.81711 | 31.25481 | 35060 ft | 454 kts | 181° |
| 2026-05-04 15:55 | 30.75474 | 31.26634 | 35072 ft | 453 kts | 181° |
| 2026-05-04 15:55 | 30.69243 | 31.27784 | 35070 ft | 453 kts | 181° |
| 2026-05-04 15:56 | 30.63018 | 31.28933 | 35045 ft | 452 kts | 181° |
| 2026-05-04 15:56 | 30.56807 | 31.30077 | 35055 ft | 452 kts | 181° |
| 2026-05-04 15:57 | 30.50602 | 31.31219 | 35073 ft | 451 kts | 181° |
| 2026-05-04 15:57 | 30.44399 | 31.32358 | 35065 ft | 451 kts | 181° |
| 2026-05-04 15:58 | 30.38196 | 31.33496 | 35027 ft | 451 kts | 181° |
| 2026-05-04 15:58 | 30.32005 | 31.34632 | 35051 ft | 450 kts | 181° |
| 2026-05-04 15:59 | 30.25823 | 31.35763 | 35062 ft | 450 kts | 181° |
| 2026-05-04 15:59 | 30.19636 | 31.36895 | 35052 ft | 450 kts | 181° |
| 2026-05-04 16:00 | 30.13447 | 31.38028 | 35017 ft | 451 kts | 180° |
| 2026-05-04 16:00 | 30.10364 | 31.38938 | 35044 ft | 464 kts | 170° |
| 2026-05-04 16:00 | 30.07366 | 31.40447 | 35046 ft | 477 kts | 161° |
| 2026-05-04 16:01 | 30.04535 | 31.42538 | 35054 ft | 488 kts | 153° |
| 2026-05-04 16:01 | 30.01802 | 31.44873 | 35054 ft | 490 kts | 152° |
| 2026-05-04 16:01 | 29.96374 | 31.49644 | 35055 ft | 490 kts | 152° |
| 2026-05-04 16:02 | 29.90938 | 31.54379 | 35046 ft | 490 kts | 152° |
| 2026-05-04 16:03 | 29.82744 | 31.61385 | 35026 ft | 488 kts | 152° |
| 2026-05-04 16:03 | 29.77283 | 31.66022 | 35066 ft | 487 kts | 152° |
| 2026-05-04 16:04 | 29.71822 | 31.70653 | 35080 ft | 488 kts | 152° |
| 2026-05-04 16:04 | 29.63630 | 31.77594 | 35084 ft | 487 kts | 152° |
| 2026-05-04 16:05 | 29.58172 | 31.82213 | 35077 ft | 487 kts | 152° |
| 2026-05-04 16:06 | 29.49992 | 31.89120 | 35051 ft | 487 kts | 152° |
| 2026-05-04 16:07 | 29.39077 | 31.98317 | 35068 ft | 487 kts | 152° |
| 2026-05-04 16:08 | 29.28149 | 32.07499 | 35062 ft | 487 kts | 153° |
| 2026-05-04 16:09 | 29.14455 | 32.18962 | 35057 ft | 488 kts | 153° |
| 2026-05-04 16:10 | 29.03529 | 32.28095 | 35068 ft | 488 kts | 153° |
| 2026-05-04 16:11 | 28.92538 | 32.37251 | 35053 ft | 487 kts | 153° |
| 2026-05-04 16:12 | 28.76169 | 32.50836 | 35066 ft | 485 kts | 152° |
| 2026-05-04 16:13 | 28.65240 | 32.59881 | 35048 ft | 486 kts | 152° |
| 2026-05-04 16:14 | 28.59738 | 32.64421 | 34319 ft | 490 kts | 152° |
| 2026-05-04 16:14 | 28.54229 | 32.68966 | 32977 ft | 489 kts | 151° |
| 2026-05-04 16:15 | 28.46083 | 32.75685 | 31611 ft | 476 kts | 151° |
| 2026-05-04 16:16 | 28.40766 | 32.80058 | 30727 ft | 468 kts | 151° |
| 2026-05-04 16:16 | 28.32940 | 32.86479 | 29311 ft | 458 kts | 151° |
| 2026-05-04 16:17 | 28.27828 | 32.90670 | 28389 ft | 449 kts | 152° |
| 2026-05-04 16:18 | 28.20337 | 32.96800 | 27060 ft | 436 kts | 152° |
| 2026-05-04 16:18 | 28.17886 | 32.98803 | 26625 ft | 433 kts | 152° |
| 2026-05-04 16:19 | 28.10632 | 33.04722 | 25347 ft | 424 kts | 152° |
| 2026-05-04 16:19 | 28.05867 | 33.08605 | 24496 ft | 420 kts | 152° |
| 2026-05-04 16:20 | 27.98796 | 33.14359 | 23132 ft | 415 kts | 152° |
| 2026-05-04 16:20 | 27.94140 | 33.18145 | 22256 ft | 409 kts | 152° |
| 2026-05-04 16:21 | 27.87282 | 33.23715 | 20967 ft | 400 kts | 151° |
| 2026-05-04 16:22 | 27.82764 | 33.27376 | 20085 ft | 398 kts | 151° |
| 2026-05-04 16:22 | 27.76054 | 33.32808 | 18825 ft | 394 kts | 151° |
| 2026-05-04 16:23 | 27.69416 | 33.38174 | 17524 ft | 389 kts | 151° |
| 2026-05-04 16:24 | 27.61451 | 33.44605 | 16023 ft | 380 kts | 150° |
| 2026-05-04 16:25 | 27.57179 | 33.48049 | 15214 ft | 375 kts | 150° |
| 2026-05-04 16:26 | 27.48547 | 33.54190 | 13747 ft | 356 kts | 164° |
| 2026-05-04 16:26 | 27.41725 | 33.57305 | 12542 ft | 349 kts | 163° |
| 2026-05-04 16:27 | 27.37283 | 33.59447 | 11786 ft | 346 kts | 162° |
| 2026-05-04 16:28 | 27.30553 | 33.61906 | 10676 ft | 335 kts | 174° |
| 2026-05-04 16:28 | 27.24058 | 33.63726 | 10223 ft | 310 kts | 173° |
| 2026-05-04 16:29 | 27.16028 | 33.66102 | 9313 ft | 292 kts | 173° |
| 2026-05-04 16:30 | 27.10142 | 33.67842 | 8295 ft | 294 kts | 171° |
| 2026-05-04 16:31 | 27.06202 | 33.69009 | 7689 ft | 291 kts | 171° |
| 2026-05-04 16:31 | 27.00378 | 33.70733 | 6866 ft | 286 kts | 170° |
| 2026-05-04 16:32 | 26.94798 | 33.72757 | 6232 ft | 280 kts | 143° |
| 2026-05-04 16:33 | 26.93250 | 33.76524 | 5587 ft | 277 kts | 83° |
| 2026-05-04 16:33 | 26.94603 | 33.80221 | 5297 ft | 241 kts | 50° |
| 2026-05-04 16:34 | 26.96428 | 33.83092 | 4782 ft | 220 kts | 47° |
| 2026-05-04 16:34 | 26.97511 | 33.84292 | 4015 ft | 221 kts | 20° |
| 2026-05-04 16:35 | 27.01566 | 33.83871 | 3029 ft | 178 kts | 344° |
| 2026-05-04 16:35 | 27.04813 | 33.82955 | 2386 ft | 143 kts | 345° |
| 2026-05-04 16:36 | 27.05732 | 33.82685 | 2235 ft | 129 kts | 345° |
| 2026-05-04 16:36 | 27.07423 | 33.82186 | 1866 ft | 125 kts | 345° |
| 2026-05-04 16:37 | 27.09129 | 33.81682 | 1513 ft | 127 kts | 343° |
| 2026-05-04 16:37 | 27.10009 | 33.81422 | 1401 ft | 143 kts | 345° |
| 2026-05-04 16:37 | 27.11946 | 33.80843 | 912 ft | 138 kts | 344° |
| 2026-05-04 16:38 | 27.13744 | 33.80314 | 583 ft | 125 kts | 343° |
| 2026-05-04 16:39 | 27.16302 | 33.79564 | 85 ft | 125 kts | 344° |
| 2026-05-04 16:39 | 27.17621 | 33.79175 | 54 ft | 64 kts | 345° |
| 2026-05-04 16:40 | 27.18199 | 33.79004 | 58 ft | 26 kts | 348° |
| 2026-05-04 16:40 | 27.18454 | 33.79024 | 61 ft | 18 kts | 14° |
| 2026-05-04 16:41 | 27.18398 | 33.79144 | 58 ft | 24 kts | 167° |
| 2026-05-04 16:41 | 27.17936 | 33.79282 | 55 ft | 22 kts | 165° |
| 2026-05-04 16:42 | 27.17450 | 33.79422 | 56 ft | 29 kts | 165° |
| 2026-05-04 16:43 | 27.17268 | 33.79671 | 58 ft | 25 kts | 75° |
| 2026-05-04 16:43 | 27.17351 | 33.80026 | 55 ft | 22 kts | 73° |
| 2026-05-04 16:43 | 27.17398 | 33.80190 | 54 ft | 22 kts | 57° |
| 2026-05-04 16:44 | 27.17553 | 33.80524 | 58 ft | 2 kts | 255° |
| 2026-05-04 16:45 | 27.17551 | 33.80517 | 60 ft | 0 kts | 255° |